sensor_id;sensor_type;location;lat;lon;timestamp;pressure;altitude;pressure_sealevel;temperature;humidity
40872;BME280;26591;43.264;26.940;2023-07-24T00:01:18;99114.09;;;25.06;63.79
40872;BME280;26591;43.264;26.940;2023-07-24T00:03:44;99110.97;;;24.87;64.00
40872;BME280;26591;43.264;26.940;2023-07-24T00:06:10;99110.53;;;25.00;63.41
40872;BME280;26591;43.264;26.940;2023-07-24T00:08:36;99117.91;;;25.10;63.91
40872;BME280;26591;43.264;26.940;2023-07-24T00:11:01;99119.91;;;25.25;63.45
40872;BME280;26591;43.264;26.940;2023-07-24T00:13:29;99118.19;;;25.08;63.55
40872;BME280;26591;43.264;26.940;2023-07-24T00:15:57;99113.44;;;24.88;63.87
40872;BME280;26591;43.264;26.940;2023-07-24T00:18:22;99122.84;;;24.80;63.16
40872;BME280;26591;43.264;26.940;2023-07-24T00:20:48;99123.75;;;24.64;64.20
40872;BME280;26591;43.264;26.940;2023-07-24T00:23:14;99118.75;;;24.23;65.14
40872;BME280;26591;43.264;26.940;2023-07-24T00:25:39;99119.31;;;24.25;65.54
40872;BME280;26591;43.264;26.940;2023-07-24T00:28:05;99123.97;;;24.30;65.34
40872;BME280;26591;43.264;26.940;2023-07-24T00:30:30;99123.88;;;24.19;65.79
40872;BME280;26591;43.264;26.940;2023-07-24T00:32:56;99121.97;;;24.20;65.93
40872;BME280;26591;43.264;26.940;2023-07-24T00:35:21;99120.38;;;23.97;65.95
40872;BME280;26591;43.264;26.940;2023-07-24T00:37:47;99122.34;;;23.84;66.71
40872;BME280;26591;43.264;26.940;2023-07-24T00:40:12;99115.06;;;23.62;67.01
40872;BME280;26591;43.264;26.940;2023-07-24T00:42:38;99113.34;;;23.78;68.05
40872;BME280;26591;43.264;26.940;2023-07-24T00:45:04;99113.50;;;23.89;67.12
40872;BME280;26591;43.264;26.940;2023-07-24T00:47:29;99120.59;;;24.17;66.24
40872;BME280;26591;43.264;26.940;2023-07-24T00:49:55;99121.31;;;24.35;65.98
40872;BME280;26591;43.264;26.940;2023-07-24T00:52:22;99116.13;;;24.28;65.66
40872;BME280;26591;43.264;26.940;2023-07-24T00:54:47;99121.13;;;24.42;65.67
40872;BME280;26591;43.264;26.940;2023-07-24T00:57:13;99125.31;;;24.55;65.27
40872;BME280;26591;43.264;26.940;2023-07-24T00:59:40;99113.81;;;24.70;64.93
40872;BME280;26591;43.264;26.940;2023-07-24T01:02:07;99123.03;;;24.46;65.33
40872;BME280;26591;43.264;26.940;2023-07-24T01:04:33;99118.34;;;24.64;65.00
40872;BME280;26591;43.264;26.940;2023-07-24T01:06:59;99117.56;;;24.68;64.46
40872;BME280;26591;43.264;26.940;2023-07-24T01:09:25;99115.19;;;24.72;64.69
40872;BME280;26591;43.264;26.940;2023-07-24T01:11:57;99112.31;;;24.84;63.66
40872;BME280;26591;43.264;26.940;2023-07-24T01:17:07;99111.88;;;24.97;63.04
40872;BME280;26591;43.264;26.940;2023-07-24T01:19:46;99116.03;;;25.10;62.96
40872;BME280;26591;43.264;26.940;2023-07-24T01:25:05;99111.13;;;25.07;62.68
40872;BME280;26591;43.264;26.940;2023-07-24T01:27:35;99116.31;;;25.14;63.17
40872;BME280;26591;43.264;26.940;2023-07-24T01:30:00;99113.38;;;25.21;62.64
40872;BME280;26591;43.264;26.940;2023-07-24T01:32:26;99114.72;;;25.18;61.95
40872;BME280;26591;43.264;26.940;2023-07-24T01:34:52;99124.72;;;25.18;62.59
40872;BME280;26591;43.264;26.940;2023-07-24T01:37:20;99122.97;;;24.96;62.85
40872;BME280;26591;43.264;26.940;2023-07-24T01:39:47;99118.88;;;24.93;62.52
40872;BME280;26591;43.264;26.940;2023-07-24T01:42:13;99115.31;;;24.88;63.37
40872;BME280;26591;43.264;26.940;2023-07-24T01:44:39;99112.59;;;24.82;63.07
40872;BME280;26591;43.264;26.940;2023-07-24T01:47:05;99115.44;;;25.03;62.46
40872;BME280;26591;43.264;26.940;2023-07-24T01:49:30;99111.41;;;25.06;62.90
40872;BME280;26591;43.264;26.940;2023-07-24T01:51:56;99117.28;;;24.97;62.64
40872;BME280;26591;43.264;26.940;2023-07-24T01:54:23;99112.09;;;24.91;61.98
40872;BME280;26591;43.264;26.940;2023-07-24T01:56:48;99106.03;;;24.51;62.61
40872;BME280;26591;43.264;26.940;2023-07-24T01:59:14;99114.56;;;24.37;64.17
40872;BME280;26591;43.264;26.940;2023-07-24T02:01:39;99107.34;;;23.93;64.83
40872;BME280;26591;43.264;26.940;2023-07-24T02:04:05;99105.22;;;23.73;66.55
40872;BME280;26591;43.264;26.940;2023-07-24T02:06:30;99100.41;;;23.58;66.93
40872;BME280;26591;43.264;26.940;2023-07-24T02:08:55;99107.91;;;23.73;67.46
40872;BME280;26591;43.264;26.940;2023-07-24T02:11:21;99104.25;;;23.62;66.80
40872;BME280;26591;43.264;26.940;2023-07-24T02:13:47;99105.69;;;23.48;67.92
40872;BME280;26591;43.264;26.940;2023-07-24T02:16:13;99101.47;;;23.57;66.93
40872;BME280;26591;43.264;26.940;2023-07-24T02:18:41;99104.88;;;23.70;67.25
40872;BME280;26591;43.264;26.940;2023-07-24T02:21:07;99102.94;;;23.65;66.62
40872;BME280;26591;43.264;26.940;2023-07-24T02:23:33;99104.50;;;23.83;66.55
40872;BME280;26591;43.264;26.940;2023-07-24T02:25:58;99108.47;;;23.98;65.91
40872;BME280;26591;43.264;26.940;2023-07-24T02:28:24;99105.94;;;24.13;65.42
40872;BME280;26591;43.264;26.940;2023-07-24T02:30:49;99102.72;;;24.16;64.93
40872;BME280;26591;43.264;26.940;2023-07-24T02:33:17;99108.34;;;24.10;64.82
40872;BME280;26591;43.264;26.940;2023-07-24T02:35:43;99106.13;;;24.06;65.11
40872;BME280;26591;43.264;26.940;2023-07-24T02:38:09;99110.84;;;24.16;64.91
40872;BME280;26591;43.264;26.940;2023-07-24T02:40:35;99107.50;;;24.31;64.17
40872;BME280;26591;43.264;26.940;2023-07-24T02:43:01;99104.88;;;24.14;64.80
40872;BME280;26591;43.264;26.940;2023-07-24T02:45:26;99108.91;;;24.12;64.34
40872;BME280;26591;43.264;26.940;2023-07-24T02:47:52;99095.66;;;24.10;64.69
40872;BME280;26591;43.264;26.940;2023-07-24T02:50:17;99097.16;;;24.01;63.90
40872;BME280;26591;43.264;26.940;2023-07-24T02:52:43;99103.44;;;24.06;64.88
40872;BME280;26591;43.264;26.940;2023-07-24T02:55:08;99105.31;;;23.84;64.52
40872;BME280;26591;43.264;26.940;2023-07-24T02:57:34;99099.56;;;23.97;65.15
40872;BME280;26591;43.264;26.940;2023-07-24T02:59:59;99105.06;;;23.85;64.56
40872;BME280;26591;43.264;26.940;2023-07-24T03:02:25;99103.13;;;23.81;64.83
40872;BME280;26591;43.264;26.940;2023-07-24T03:04:50;99105.03;;;24.02;64.91
40872;BME280;26591;43.264;26.940;2023-07-24T03:07:16;99115.44;;;24.43;64.26
40872;BME280;26591;43.264;26.940;2023-07-24T03:09:41;99113.91;;;24.80;63.41
40872;BME280;26591;43.264;26.940;2023-07-24T03:12:07;99108.66;;;25.01;62.18
40872;BME280;26591;43.264;26.940;2023-07-24T03:14:33;99109.97;;;25.41;61.26
40872;BME280;26591;43.264;26.940;2023-07-24T03:16:58;99114.47;;;25.68;60.97
40872;BME280;26591;43.264;26.940;2023-07-24T03:19:24;99112.66;;;25.89;60.11
40872;BME280;26591;43.264;26.940;2023-07-24T03:21:49;99115.69;;;26.03;60.75
40872;BME280;26591;43.264;26.940;2023-07-24T03:24:15;99111.75;;;26.31;60.32
40872;BME280;26591;43.264;26.940;2023-07-24T03:26:41;99117.44;;;26.71;57.90
40872;BME280;26591;43.264;26.940;2023-07-24T03:29:06;99116.09;;;26.53;59.39
40872;BME280;26591;43.264;26.940;2023-07-24T03:31:32;99124.47;;;26.41;59.86
40872;BME280;26591;43.264;26.940;2023-07-24T03:33:57;99111.69;;;26.11;59.94
40872;BME280;26591;43.264;26.940;2023-07-24T03:36:23;99115.78;;;26.18;61.59
40872;BME280;26591;43.264;26.940;2023-07-24T03:38:48;99107.94;;;26.63;59.55
40872;BME280;26591;43.264;26.940;2023-07-24T03:41:14;99111.22;;;27.07;59.15
40872;BME280;26591;43.264;26.940;2023-07-24T03:43:40;99113.78;;;27.79;56.88
40872;BME280;26591;43.264;26.940;2023-07-24T03:46:06;99114.38;;;28.26;55.43
40872;BME280;26591;43.264;26.940;2023-07-24T03:48:31;99124.19;;;28.22;55.35
40872;BME280;26591;43.264;26.940;2023-07-24T03:51:00;99128.34;;;28.09;55.84
40872;BME280;26591;43.264;26.940;2023-07-24T03:53:26;99128.34;;;28.04;55.94
40872;BME280;26591;43.264;26.940;2023-07-24T03:55:51;99126.75;;;28.48;54.33
40872;BME280;26591;43.264;26.940;2023-07-24T03:58:17;99135.69;;;28.54;54.17
40872;BME280;26591;43.264;26.940;2023-07-24T04:00:42;99131.94;;;28.44;54.53
40872;BME280;26591;43.264;26.940;2023-07-24T04:03:08;99133.94;;;28.68;53.25
40872;BME280;26591;43.264;26.940;2023-07-24T04:05:35;99137.41;;;28.84;52.70
40872;BME280;26591;43.264;26.940;2023-07-24T04:08:00;99137.06;;;29.20;52.54
40872;BME280;26591;43.264;26.940;2023-07-24T04:10:26;99129.75;;;29.69;51.44
40872;BME280;26591;43.264;26.940;2023-07-24T04:12:52;99130.78;;;29.98;50.01
40872;BME280;26591;43.264;26.940;2023-07-24T04:15:17;99135.31;;;30.08;49.55
40872;BME280;26591;43.264;26.940;2023-07-24T04:17:43;99134.56;;;30.21;49.25
40872;BME280;26591;43.264;26.940;2023-07-24T04:20:09;99132.88;;;30.25;49.37
40872;BME280;26591;43.264;26.940;2023-07-24T04:22:35;99137.53;;;30.44;49.08
40872;BME280;26591;43.264;26.940;2023-07-24T04:25:00;99136.06;;;30.71;48.33
40872;BME280;26591;43.264;26.940;2023-07-24T04:27:26;99128.47;;;30.82;47.46
40872;BME280;26591;43.264;26.940;2023-07-24T04:29:51;99131.53;;;30.80;47.98
40872;BME280;26591;43.264;26.940;2023-07-24T04:32:17;99128.72;;;30.99;47.09
40872;BME280;26591;43.264;26.940;2023-07-24T04:34:43;99124.47;;;30.93;47.67
40872;BME280;26591;43.264;26.940;2023-07-24T04:37:09;99122.75;;;30.97;47.37
40872;BME280;26591;43.264;26.940;2023-07-24T04:39:34;99134.66;;;31.20;47.00
40872;BME280;26591;43.264;26.940;2023-07-24T04:42:00;99140.53;;;31.14;47.81
40872;BME280;26591;43.264;26.940;2023-07-24T04:44:25;99135.38;;;31.26;47.98
40872;BME280;26591;43.264;26.940;2023-07-24T04:46:51;99141.59;;;31.32;47.47
40872;BME280;26591;43.264;26.940;2023-07-24T04:49:16;99136.81;;;31.51;47.41
40872;BME280;26591;43.264;26.940;2023-07-24T04:51:42;99140.41;;;31.80;46.48
40872;BME280;26591;43.264;26.940;2023-07-24T04:54:08;99126.03;;;31.74;46.56
40872;BME280;26591;43.264;26.940;2023-07-24T04:56:34;99136.16;;;32.24;45.23
40872;BME280;26591;43.264;26.940;2023-07-24T04:58:59;99135.91;;;31.84;46.60
40872;BME280;26591;43.264;26.940;2023-07-24T05:01:25;99128.03;;;31.83;46.68
40872;BME280;26591;43.264;26.940;2023-07-24T05:03:50;99133.22;;;30.76;48.33
40872;BME280;26591;43.264;26.940;2023-07-24T05:06:16;99138.16;;;31.07;48.41
40872;BME280;26591;43.264;26.940;2023-07-24T05:08:41;99142.72;;;31.73;46.68
40872;BME280;26591;43.264;26.940;2023-07-24T05:11:07;99140.16;;;32.04;46.66
40872;BME280;26591;43.264;26.940;2023-07-24T05:13:33;99148.28;;;31.95;46.21
40872;BME280;26591;43.264;26.940;2023-07-24T05:15:58;99146.81;;;32.40;45.16
40872;BME280;26591;43.264;26.940;2023-07-24T05:18:24;99152.94;;;31.53;46.60
40872;BME280;26591;43.264;26.940;2023-07-24T05:20:49;99152.19;;;32.17;45.72
40872;BME280;26591;43.264;26.940;2023-07-24T05:23:18;99151.22;;;32.50;44.66
40872;BME280;26591;43.264;26.940;2023-07-24T05:25:44;99148.50;;;32.72;44.69
40872;BME280;26591;43.264;26.940;2023-07-24T05:28:09;99148.81;;;32.71;44.62
40872;BME280;26591;43.264;26.940;2023-07-24T05:30:35;99151.38;;;32.90;44.63
40872;BME280;26591;43.264;26.940;2023-07-24T05:33:01;99154.25;;;33.39;42.65
40872;BME280;26591;43.264;26.940;2023-07-24T05:35:26;99145.75;;;32.95;43.74
40872;BME280;26591;43.264;26.940;2023-07-24T05:37:52;99156.75;;;33.27;43.32
40872;BME280;26591;43.264;26.940;2023-07-24T05:40:17;99156.81;;;33.13;43.70
40872;BME280;26591;43.264;26.940;2023-07-24T05:42:43;99157.81;;;33.17;43.19
40872;BME280;26591;43.264;26.940;2023-07-24T05:45:09;99144.91;;;32.86;44.48
40872;BME280;26591;43.264;26.940;2023-07-24T05:47:39;99139.63;;;32.53;45.29
40872;BME280;26591;43.264;26.940;2023-07-24T05:50:05;99139.66;;;32.76;44.90
40872;BME280;26591;43.264;26.940;2023-07-24T05:52:31;99131.47;;;31.60;46.34
40872;BME280;26591;43.264;26.940;2023-07-24T05:54:56;99133.72;;;31.72;46.39
40872;BME280;26591;43.264;26.940;2023-07-24T05:57:22;99139.78;;;30.75;49.15
40872;BME280;26591;43.264;26.940;2023-07-24T05:59:47;99136.34;;;31.02;48.17
40872;BME280;26591;43.264;26.940;2023-07-24T06:02:13;99132.06;;;31.29;47.64
40872;BME280;26591;43.264;26.940;2023-07-24T06:04:39;99141.78;;;30.69;49.07
40872;BME280;26591;43.264;26.940;2023-07-24T06:07:04;99136.63;;;30.68;50.10
40872;BME280;26591;43.264;26.940;2023-07-24T06:09:30;99130.94;;;31.16;48.60
40872;BME280;26591;43.264;26.940;2023-07-24T06:11:55;99135.44;;;30.74;49.12
40872;BME280;26591;43.264;26.940;2023-07-24T06:14:21;99130.75;;;30.94;49.18
40872;BME280;26591;43.264;26.940;2023-07-24T06:16:46;99132.19;;;30.53;49.46
40872;BME280;26591;43.264;26.940;2023-07-24T06:19:12;99126.53;;;30.30;49.91
40872;BME280;26591;43.264;26.940;2023-07-24T06:21:37;99118.31;;;30.87;49.21
40872;BME280;26591;43.264;26.940;2023-07-24T06:24:03;99123.00;;;30.49;50.57
40872;BME280;26591;43.264;26.940;2023-07-24T06:26:29;99128.81;;;31.13;48.85
40872;BME280;26591;43.264;26.940;2023-07-24T06:28:56;99128.28;;;30.02;51.48
40872;BME280;26591;43.264;26.940;2023-07-24T06:31:21;99127.00;;;30.56;49.44
40872;BME280;26591;43.264;26.940;2023-07-24T06:33:47;99130.13;;;31.44;48.29
40872;BME280;26591;43.264;26.940;2023-07-24T06:36:13;99130.47;;;30.95;49.38
40872;BME280;26591;43.264;26.940;2023-07-24T06:38:39;99125.00;;;31.70;47.78
40872;BME280;26591;43.264;26.940;2023-07-24T06:41:04;99128.94;;;31.78;47.27
40872;BME280;26591;43.264;26.940;2023-07-24T06:43:30;99129.75;;;31.78;47.11
40872;BME280;26591;43.264;26.940;2023-07-24T06:45:56;99123.31;;;32.11;46.84
40872;BME280;26591;43.264;26.940;2023-07-24T06:48:22;99118.09;;;31.73;47.47
40872;BME280;26591;43.264;26.940;2023-07-24T06:50:47;99115.66;;;31.85;47.32
40872;BME280;26591;43.264;26.940;2023-07-24T06:53:13;99126.44;;;31.07;49.28
40872;BME280;26591;43.264;26.940;2023-07-24T06:55:38;99131.06;;;31.53;48.66
40872;BME280;26591;43.264;26.940;2023-07-24T06:58:04;99131.72;;;30.84;49.88
40872;BME280;26591;43.264;26.940;2023-07-24T07:00:29;99118.94;;;30.08;50.42
40872;BME280;26591;43.264;26.940;2023-07-24T07:02:55;99118.25;;;30.16;50.68
40872;BME280;26591;43.264;26.940;2023-07-24T07:05:21;99114.69;;;29.77;51.63
40872;BME280;26591;43.264;26.940;2023-07-24T07:07:47;99104.00;;;30.77;49.19
40872;BME280;26591;43.264;26.940;2023-07-24T07:10:12;99109.56;;;31.60;48.11
40872;BME280;26591;43.264;26.940;2023-07-24T07:12:38;99103.31;;;31.46;47.47
40872;BME280;26591;43.264;26.940;2023-07-24T07:15:03;99105.75;;;29.47;51.06
40872;BME280;26591;43.264;26.940;2023-07-24T07:17:29;99097.44;;;29.58;51.78
40872;BME280;26591;43.264;26.940;2023-07-24T07:19:54;99090.41;;;29.03;52.13
40872;BME280;26591;43.264;26.940;2023-07-24T07:22:21;99090.56;;;27.97;54.47
40872;BME280;26591;43.264;26.940;2023-07-24T07:24:47;99098.38;;;29.72;51.44
40872;BME280;26591;43.264;26.940;2023-07-24T07:27:12;99092.69;;;29.68;49.54
40872;BME280;26591;43.264;26.940;2023-07-24T07:29:38;99093.84;;;30.25;48.91
40872;BME280;26591;43.264;26.940;2023-07-24T07:32:04;99086.78;;;30.76;47.70
40872;BME280;26591;43.264;26.940;2023-07-24T07:34:29;99094.53;;;30.17;49.31
40872;BME280;26591;43.264;26.940;2023-07-24T07:36:55;99087.63;;;30.38;48.95
40872;BME280;26591;43.264;26.940;2023-07-24T07:39:20;99078.16;;;29.97;49.25
40872;BME280;26591;43.264;26.940;2023-07-24T07:41:46;99072.66;;;29.05;50.16
40872;BME280;26591;43.264;26.940;2023-07-24T07:44:11;99070.03;;;28.95;51.62
40872;BME280;26591;43.264;26.940;2023-07-24T07:46:37;99069.47;;;29.90;49.44
40872;BME280;26591;43.264;26.940;2023-07-24T07:49:05;99066.09;;;30.37;47.10
40872;BME280;26591;43.264;26.940;2023-07-24T07:51:31;99065.97;;;30.28;43.46
40872;BME280;26591;43.264;26.940;2023-07-24T07:53:56;99069.69;;;29.94;46.20
40872;BME280;26591;43.264;26.940;2023-07-24T07:56:22;99065.41;;;30.45;45.51
40872;BME280;26591;43.264;26.940;2023-07-24T07:58:47;99068.34;;;31.01;44.25
40872;BME280;26591;43.264;26.940;2023-07-24T08:01:14;99065.75;;;30.77;45.31
40872;BME280;26591;43.264;26.940;2023-07-24T08:03:39;99065.19;;;31.77;43.00
40872;BME280;26591;43.264;26.940;2023-07-24T08:06:05;99069.13;;;32.22;41.28
40872;BME280;26591;43.264;26.940;2023-07-24T08:08:31;99067.63;;;31.65;42.53
40872;BME280;26591;43.264;26.940;2023-07-24T08:10:56;99058.50;;;31.00;44.62
40872;BME280;26591;43.264;26.940;2023-07-24T08:13:22;99058.03;;;31.54;43.27
40872;BME280;26591;43.264;26.940;2023-07-24T08:15:49;99057.84;;;30.75;43.05
40872;BME280;26591;43.264;26.940;2023-07-24T08:18:14;99062.72;;;29.88;45.89
40872;BME280;26591;43.264;26.940;2023-07-24T08:20:40;99062.13;;;29.91;46.79
40872;BME280;26591;43.264;26.940;2023-07-24T08:23:05;99067.19;;;29.78;46.79
40872;BME280;26591;43.264;26.940;2023-07-24T08:25:31;99053.50;;;30.41;44.36
40872;BME280;26591;43.264;26.940;2023-07-24T08:27:56;99060.53;;;31.08;42.85
40872;BME280;26591;43.264;26.940;2023-07-24T08:30:22;99054.19;;;31.27;42.56
40872;BME280;26591;43.264;26.940;2023-07-24T08:32:48;99056.63;;;31.28;41.51
40872;BME280;26591;43.264;26.940;2023-07-24T08:35:15;99045.28;;;31.35;40.77
40872;BME280;26591;43.264;26.940;2023-07-24T08:37:44;99048.91;;;31.58;39.64
40872;BME280;26591;43.264;26.940;2023-07-24T08:40:10;99055.28;;;31.40;40.54
40872;BME280;26591;43.264;26.940;2023-07-24T08:42:40;99056.63;;;31.28;41.06
40872;BME280;26591;43.264;26.940;2023-07-24T08:45:11;99052.63;;;30.79;41.66
40872;BME280;26591;43.264;26.940;2023-07-24T08:47:39;99041.75;;;30.40;42.57
40872;BME280;26591;43.264;26.940;2023-07-24T08:50:08;99048.94;;;30.36;42.55
40872;BME280;26591;43.264;26.940;2023-07-24T08:52:37;99045.25;;;30.08;42.04
40872;BME280;26591;43.264;26.940;2023-07-24T08:55:05;99036.94;;;30.84;40.33
40872;BME280;26591;43.264;26.940;2023-07-24T08:57:31;99034.59;;;30.44;39.57
40872;BME280;26591;43.264;26.940;2023-07-24T08:59:56;99036.81;;;30.75;38.78
40872;BME280;26591;43.264;26.940;2023-07-24T09:02:23;99032.28;;;30.85;38.93
40872;BME280;26591;43.264;26.940;2023-07-24T09:04:48;99033.44;;;31.26;38.52
40872;BME280;26591;43.264;26.940;2023-07-24T09:07:14;99032.78;;;31.71;36.90
40872;BME280;26591;43.264;26.940;2023-07-24T09:09:39;99024.22;;;31.35;37.91
40872;BME280;26591;43.264;26.940;2023-07-24T09:12:05;99021.56;;;31.58;36.60
40872;BME280;26591;43.264;26.940;2023-07-24T09:14:31;99011.34;;;30.94;37.80
40872;BME280;26591;43.264;26.940;2023-07-24T09:17:09;99006.50;;;31.47;36.50
40872;BME280;26591;43.264;26.940;2023-07-24T09:19:36;99014.06;;;32.01;37.07
40872;BME280;26591;43.264;26.940;2023-07-24T09:22:11;99014.91;;;32.01;36.70
40872;BME280;26591;43.264;26.940;2023-07-24T09:24:48;99001.81;;;31.75;35.76
40872;BME280;26591;43.264;26.940;2023-07-24T09:27:15;99007.44;;;32.38;35.83
40872;BME280;26591;43.264;26.940;2023-07-24T09:29:41;99011.63;;;32.90;34.67
40872;BME280;26591;43.264;26.940;2023-07-24T09:32:07;98997.28;;;33.02;35.34
40872;BME280;26591;43.264;26.940;2023-07-24T09:34:33;98995.69;;;32.69;35.67
40872;BME280;26591;43.264;26.940;2023-07-24T09:36:58;99000.16;;;32.11;36.19
40872;BME280;26591;43.264;26.940;2023-07-24T09:39:25;98989.53;;;31.73;37.77
40872;BME280;26591;43.264;26.940;2023-07-24T09:41:51;98987.63;;;31.96;36.36
40872;BME280;26591;43.264;26.940;2023-07-24T09:44:17;98986.00;;;31.95;36.46
40872;BME280;26591;43.264;26.940;2023-07-24T09:46:43;98983.91;;;32.15;35.97
40872;BME280;26591;43.264;26.940;2023-07-24T09:49:09;98974.03;;;31.68;36.32
40872;BME280;26591;43.264;26.940;2023-07-24T09:51:35;98972.19;;;31.77;37.12
40872;BME280;26591;43.264;26.940;2023-07-24T09:54:29;98971.09;;;31.28;38.00
40872;BME280;26591;43.264;26.940;2023-07-24T09:56:52;98966.84;;;31.58;37.87
40872;BME280;26591;43.264;26.940;2023-07-24T09:59:19;98964.00;;;32.00;36.42
40872;BME280;26591;43.264;26.940;2023-07-24T10:01:47;98963.63;;;32.38;36.84
40872;BME280;26591;43.264;26.940;2023-07-24T10:04:14;98962.56;;;32.48;36.17
40872;BME280;26591;43.264;26.940;2023-07-24T10:06:41;98957.25;;;32.52;35.33
40872;BME280;26591;43.264;26.940;2023-07-24T10:09:08;98949.34;;;32.50;33.79
40872;BME280;26591;43.264;26.940;2023-07-24T10:11:34;98950.34;;;32.54;35.08
40872;BME280;26591;43.264;26.940;2023-07-24T10:14:01;98952.06;;;31.73;34.93
40872;BME280;26591;43.264;26.940;2023-07-24T10:16:26;98938.44;;;32.05;35.93
40872;BME280;26591;43.264;26.940;2023-07-24T10:18:52;98939.63;;;32.13;34.95
40872;BME280;26591;43.264;26.940;2023-07-24T10:21:18;98935.91;;;32.31;35.52
40872;BME280;26591;43.264;26.940;2023-07-24T10:23:51;98930.72;;;32.61;35.64
40872;BME280;26591;43.264;26.940;2023-07-24T10:26:24;98936.06;;;33.24;35.27
40872;BME280;26591;43.264;26.940;2023-07-24T10:28:51;98940.00;;;33.41;34.86
40872;BME280;26591;43.264;26.940;2023-07-24T10:31:25;98927.53;;;33.17;33.76
40872;BME280;26591;43.264;26.940;2023-07-24T10:33:55;98923.72;;;33.88;33.36
40872;BME280;26591;43.264;26.940;2023-07-24T10:36:22;98917.56;;;33.30;34.83
40872;BME280;26591;43.264;26.940;2023-07-24T10:38:54;98910.06;;;32.86;34.83
40872;BME280;26591;43.264;26.940;2023-07-24T10:41:20;98910.06;;;32.55;35.71
40872;BME280;26591;43.264;26.940;2023-07-24T10:43:50;98910.22;;;32.50;36.21
40872;BME280;26591;43.264;26.940;2023-07-24T10:46:18;98896.78;;;33.38;34.30
40872;BME280;26591;43.264;26.940;2023-07-24T10:48:49;98897.22;;;34.10;33.71
40872;BME280;26591;43.264;26.940;2023-07-24T10:51:15;98893.22;;;34.37;33.35
40872;BME280;26591;43.264;26.940;2023-07-24T10:53:47;98893.72;;;34.39;34.12
40872;BME280;26591;43.264;26.940;2023-07-24T10:56:15;98903.41;;;34.37;33.91
40872;BME280;26591;43.264;26.940;2023-07-24T10:58:41;98890.97;;;34.48;33.81
40872;BME280;26591;43.264;26.940;2023-07-24T11:01:07;98895.03;;;34.72;33.00
40872;BME280;26591;43.264;26.940;2023-07-24T11:03:41;98882.59;;;34.36;34.25
40872;BME280;26591;43.264;26.940;2023-07-24T11:06:18;98888.91;;;35.05;31.90
40872;BME280;26591;43.264;26.940;2023-07-24T11:08:57;98894.16;;;35.40;31.82
40872;BME280;26591;43.264;26.940;2023-07-24T11:11:33;98889.31;;;35.16;31.79
40872;BME280;26591;43.264;26.940;2023-07-24T11:14:01;98888.75;;;34.72;31.78
40872;BME280;26591;43.264;26.940;2023-07-24T11:16:27;98887.09;;;34.49;32.71
40872;BME280;26591;43.264;26.940;2023-07-24T11:18:55;98878.69;;;34.37;33.19
40872;BME280;26591;43.264;26.940;2023-07-24T11:21:22;98874.34;;;35.05;32.28
40872;BME280;26591;43.264;26.940;2023-07-24T11:23:50;98866.34;;;35.33;32.09
40872;BME280;26591;43.264;26.940;2023-07-24T11:26:18;98865.81;;;34.67;32.66
40872;BME280;26591;43.264;26.940;2023-07-24T11:28:44;98870.34;;;34.63;32.13
40872;BME280;26591;43.264;26.940;2023-07-24T11:31:09;98866.75;;;34.42;32.51
40872;BME280;26591;43.264;26.940;2023-07-24T11:33:36;98863.94;;;34.59;32.05
40872;BME280;26591;43.264;26.940;2023-07-24T11:36:02;98861.97;;;34.60;31.79
40872;BME280;26591;43.264;26.940;2023-07-24T11:38:28;98859.44;;;34.55;32.32
40872;BME280;26591;43.264;26.940;2023-07-24T11:40:54;98856.66;;;35.36;31.32
40872;BME280;26591;43.264;26.940;2023-07-24T11:43:22;98851.84;;;36.12;29.87
40872;BME280;26591;43.264;26.940;2023-07-24T11:45:51;98863.72;;;36.38;29.77
40872;BME280;26591;43.264;26.940;2023-07-24T11:48:18;98839.28;;;36.61;28.98
40872;BME280;26591;43.264;26.940;2023-07-24T11:50:49;98852.91;;;36.82;28.49
40872;BME280;26591;43.264;26.940;2023-07-24T11:53:28;98845.19;;;34.82;30.24
40872;BME280;26591;43.264;26.940;2023-07-24T11:55:59;98843.56;;;35.11;30.66
40872;BME280;26591;43.264;26.940;2023-07-24T11:58:27;98848.91;;;35.71;29.83
40872;BME280;26591;43.264;26.940;2023-07-24T12:00:53;98850.72;;;35.67;29.88
40872;BME280;26591;43.264;26.940;2023-07-24T12:03:25;98844.72;;;35.99;29.75
40872;BME280;26591;43.264;26.940;2023-07-24T12:05:52;98824.56;;;36.07;25.97
40872;BME280;26591;43.264;26.940;2023-07-24T12:08:30;98827.78;;;36.71;26.22
40872;BME280;26591;43.264;26.940;2023-07-24T12:10:55;98829.50;;;36.39;26.33
40872;BME280;26591;43.264;26.940;2023-07-24T12:13:21;98829.31;;;36.44;26.85
40872;BME280;26591;43.264;26.940;2023-07-24T12:15:47;98825.59;;;36.64;26.36
40872;BME280;26591;43.264;26.940;2023-07-24T12:18:14;98817.44;;;36.43;26.54
40872;BME280;26591;43.264;26.940;2023-07-24T12:20:40;98816.31;;;36.32;26.82
40872;BME280;26591;43.264;26.940;2023-07-24T12:23:06;98813.66;;;36.35;27.03
40872;BME280;26591;43.264;26.940;2023-07-24T12:25:31;98808.03;;;36.32;26.89
40872;BME280;26591;43.264;26.940;2023-07-24T12:27:57;98810.91;;;36.73;27.11
40872;BME280;26591;43.264;26.940;2023-07-24T12:30:23;98814.63;;;37.05;26.90
40872;BME280;26591;43.264;26.940;2023-07-24T12:32:48;98815.34;;;37.31;26.77
40872;BME280;26591;43.264;26.940;2023-07-24T12:35:15;98809.34;;;37.41;26.07
40872;BME280;26591;43.264;26.940;2023-07-24T12:37:41;98809.88;;;37.75;25.65
40872;BME280;26591;43.264;26.940;2023-07-24T12:40:08;98808.97;;;37.71;25.44
40872;BME280;26591;43.264;26.940;2023-07-24T12:42:34;98809.78;;;37.88;24.97
40872;BME280;26591;43.264;26.940;2023-07-24T12:45:00;98801.22;;;37.77;25.23
40872;BME280;26591;43.264;26.940;2023-07-24T12:47:28;98798.16;;;37.50;24.69
40872;BME280;26591;43.264;26.940;2023-07-24T12:49:53;98806.22;;;37.71;24.39
40872;BME280;26591;43.264;26.940;2023-07-24T12:52:20;98799.75;;;38.11;24.31